Time;durP1;ratioP1;P1;durP2;ratioP2;P2;SDS_P1;SDS_P2;PMS_P1;PMS_P2;Temp;Humidity;BMP_temperature;BMP_pressure;BME280_temperature;BME280_humidity;BME280_pressure;Samples;Min_cycle;Max_cycle;Signal;HPM_P1;HPM_P2
2021/10/17 00:00:08;;;;;;;11.53;10.33;;;;;;;9.92;68.94;95910.13;6153607;23;20213;-85
2021/10/17 00:02:36;;;;;;;11.43;10.23;;;;;;;10.02;68.63;95908.16;6154274;23;20694;-85
2021/10/17 00:05:03;;;;;;;10.87;9.77;;;;;;;10.02;68.71;95913.28;6153959;23;20186;-84
2021/10/17 00:07:29;;;;;;;11.47;10.17;;;;;;;9.93;68.81;95914.28;6154040;23;20193;-87
2021/10/17 00:09:56;;;;;;;11.67;9.70;;;;;;;9.93;68.75;95917.66;6154511;23;20508;-85
2021/10/17 00:12:24;;;;;;;9.93;8.97;;;;;;;9.94;68.67;95915.91;6154472;23;20664;-84
2021/10/17 00:14:51;;;;;;;11.50;9.50;;;;;;;9.96;68.55;95913.97;6154102;23;20655;-84
2021/10/17 00:17:17;;;;;;;10.20;9.20;;;;;;;9.99;68.04;95919.59;6156147;23;20182;-86
2021/10/17 00:19:44;;;;;;;10.57;9.47;;;;;;;9.95;68.05;95918.31;6156466;23;20179;-85
2021/10/17 00:22:10;;;;;;;10.27;9.27;;;;;;;9.96;68.17;95913.97;6156229;23;20202;-86
2021/10/17 00:24:37;;;;;;;9.47;8.47;;;;;;;9.96;68.28;95917.34;6155872;23;20493;-84
2021/10/17 00:27:03;;;;;;;9.37;8.47;;;;;;;9.98;67.81;95920.56;6157082;23;20178;-84
2021/10/17 00:29:31;;;;;;;9.53;8.60;;;;;;;9.91;68.09;95914.44;6156826;23;20186;-86
2021/10/17 00:31:57;;;;;;;10.40;8.73;;;;;;;9.93;68.07;95914.28;6157025;23;20251;-84
2021/10/17 00:34:24;;;;;;;10.50;9.40;;;;;;;9.82;68.33;95918.00;6155621;23;20174;-86
2021/10/17 00:36:50;;;;;;;9.50;8.60;;;;;;;9.94;68.18;95921.84;6155332;23;20193;-85
2021/10/17 00:39:17;;;;;;;10.27;8.47;;;;;;;9.97;67.61;95924.09;6156882;23;20193;-85
2021/10/17 00:41:45;;;;;;;10.23;8.50;;;;;;;10.00;67.26;95926.34;6156140;23;20551;-84
2021/10/17 00:44:19;;;;;;;10.30;9.30;;;;;;;9.93;67.54;95925.38;6155465;23;20174;-84
2021/10/17 00:46:47;;;;;;;9.90;8.90;;;;;;;9.85;67.82;95932.31;6155624;23;20166;-85
2021/10/17 00:49:14;;;;;;;9.83;8.70;;;;;;;9.82;67.65;95940.34;6154881;23;20186;-84
2021/10/17 00:51:42;;;;;;;10.70;8.50;;;;;;;9.83;68.13;95936.78;6154539;23;20273;-84
2021/10/17 00:54:10;;;;;;;12.17;8.37;;;;;;;9.84;67.71;95940.97;6155078;23;20470;-84
2021/10/17 00:56:37;;;;;;;9.27;8.37;;;;;;;9.69;68.18;95938.28;6155250;23;20178;-85
2021/10/17 00:59:04;;;;;;;9.80;8.80;;;;;;;9.64;68.64;95943.88;6154727;23;20226;-83
2021/10/17 01:01:31;;;;;;;8.97;8.17;;;;;;;9.67;68.32;95948.72;6155262;23;20210;-84
2021/10/17 01:03:58;;;;;;;9.70;8.70;;;;;;;9.69;68.62;95938.28;6154495;23;20179;-85
2021/10/17 01:06:25;;;;;;;9.70;8.70;;;;;;;9.80;68.03;95943.09;6155562;23;20174;-85
2021/10/17 01:08:51;;;;;;;9.10;8.20;;;;;;;9.86;67.32;95933.91;6155463;23;20262;-84
2021/10/17 01:11:18;;;;;;;9.73;8.10;;;;;;;9.88;66.97;95935.34;6155237;23;20202;-84
2021/10/17 01:13:45;;;;;;;8.63;7.73;;;;;;;9.75;67.27;95931.69;6155205;23;20179;-86
2021/10/17 01:16:11;;;;;;;9.10;8.20;;;;;;;9.78;67.48;95929.59;6155339;23;20174;-85
2021/10/17 01:18:38;;;;;;;10.40;8.10;;;;;;;9.72;66.84;95925.09;6154502;23;20560;-85
2021/10/17 01:21:06;;;;;;;9.00;8.10;;;;;;;9.70;67.33;95927.81;6155247;23;20186;-84
2021/10/17 01:23:32;;;;;;;11.10;9.33;;;;;;;9.59;67.65;95940.22;6155096;23;20175;-84
2021/10/17 01:26:01;;;;;;;11.60;10.00;;;;;;;9.61;67.70;95928.81;6154959;23;20235;-84
2021/10/17 01:28:27;;;;;;;11.20;10.10;;;;;;;9.58;67.60;95918.84;6155204;23;20182;-84
2021/10/17 01:30:54;;;;;;;11.90;10.20;;;;;;;9.37;68.06;95921.09;6155053;23;20185;-84
2021/10/17 01:33:20;;;;;;;11.37;9.93;;;;;;;9.24;68.98;95915.63;6154681;23;20183;-84
2021/10/17 01:35:47;;;;;;;11.73;9.97;;;;;;;9.16;69.46;95918.19;6154365;23;20182;-86
2021/10/17 01:38:15;;;;;;;10.27;9.27;;;;;;;9.15;69.47;95914.81;6155116;23;20179;-83
2021/10/17 01:40:41;;;;;;;10.70;9.60;;;;;;;9.17;69.48;95920.59;6154643;23;20175;-84
2021/10/17 01:43:08;;;;;;;9.53;8.53;;;;;;;9.28;69.29;95910.00;6154703;23;20203;-84
2021/10/17 01:45:34;;;;;;;9.77;8.77;;;;;;;9.44;68.66;95910.97;6156608;23;20179;-85
2021/10/17 01:48:02;;;;;;;10.07;9.07;;;;;;;9.49;68.44;95906.16;6156092;23;20197;-86
2021/10/17 01:50:29;;;;;;;9.77;8.73;;;;;;;9.51;68.80;95905.03;6156536;23;20175;-84
2021/10/17 01:52:55;;;;;;;10.27;8.80;;;;;;;9.47;68.58;95911.44;6155706;23;20668;-86
2021/10/17 01:55:23;;;;;;;10.20;9.20;;;;;;;9.46;69.09;95907.28;6156010;23;20516;-86
2021/10/17 01:57:50;;;;;;;9.70;8.67;;;;;;;9.38;69.02;95903.91;6155683;23;20181;-86
2021/10/17 02:00:16;;;;;;;10.00;9.00;;;;;;;9.46;69.05;95906.47;6154736;23;20202;-86
2021/10/17 02:02:43;;;;;;;9.90;8.90;;;;;;;9.50;68.72;95902.63;6155386;23;20206;-85
2021/10/17 02:05:11;;;;;;;9.83;8.83;;;;;;;9.56;68.12;95899.41;6154939;23;20175;-84
2021/10/17 02:07:37;;;;;;;10.00;8.87;;;;;;;9.55;67.73;95900.38;6155634;23;20516;-85
2021/10/17 02:10:06;;;;;;;10.23;9.17;;;;;;;9.57;67.67;95906.97;6155628;23;20175;-85
2021/10/17 02:12:34;;;;;;;10.27;8.50;;;;;;;9.57;67.82;95896.69;6154516;23;20202;-86
2021/10/17 02:15:04;;;;;;;9.70;8.30;;;;;;;9.50;67.52;95894.91;6155197;23;20526;-86
2021/10/17 02:17:31;;;;;;;9.10;7.97;;;;;;;9.47;67.33;95900.38;6154911;23;20253;-85
2021/10/17 02:19:58;;;;;;;9.17;8.27;;;;;;;9.45;67.21;95899.72;6155558;23;20699;-85
2021/10/17 02:22:24;;;;;;;9.30;8.20;;;;;;;9.39;67.30;95893.47;6154994;23;20536;-84
2021/10/17 02:24:51;;;;;;;9.43;8.53;;;;;;;9.39;67.26;95913.22;6153252;23;20182;-85
2021/10/17 02:27:17;;;;;;;9.57;8.30;;;;;;;9.45;67.49;95903.09;6154254;23;20201;-84
2021/10/17 02:29:45;;;;;;;9.40;8.40;;;;;;;9.39;67.27;95908.09;6155087;23;20174;-86
2021/10/17 02:32:11;;;;;;;11.50;8.93;;;;;;;9.32;67.46;95908.72;6154706;23;20202;-85
2021/10/17 02:34:38;;;;;;;9.27;8.30;;;;;;;9.24;67.65;95908.72;6154596;23;20182;-84
2021/10/17 02:37:04;;;;;;;9.17;8.17;;;;;;;9.19;68.10;95905.03;6154875;23;20179;-86
2021/10/17 02:39:31;;;;;;;9.30;8.37;;;;;;;9.13;68.83;95908.22;6154086;23;20189;-84
2021/10/17 02:41:57;;;;;;;10.70;8.07;;;;;;;9.22;68.12;95907.28;6154730;23;20198;-85
2021/10/17 02:44:24;;;;;;;9.10;8.20;;;;;;;9.26;68.18;95909.34;6153985;23;20179;-83
2021/10/17 02:46:51;;;;;;;8.73;7.87;;;;;;;9.28;67.95;95906.63;6154447;23;20637;-83
2021/10/17 02:49:18;;;;;;;8.63;7.37;;;;;;;9.31;67.78;95907.13;6154574;23;20184;-84
2021/10/17 02:51:44;;;;;;;8.43;7.63;;;;;;;9.20;68.35;95906.66;6155144;23;20201;-85
2021/10/17 02:54:11;;;;;;;8.50;7.70;;;;;;;9.11;68.50;95916.09;6155292;23;20187;-85
2021/10/17 02:56:37;;;;;;;9.10;8.13;;;;;;;9.03;68.79;95921.25;6155446;23;20175;-84
2021/10/17 02:59:04;;;;;;;8.53;7.73;;;;;;;9.03;69.51;95917.88;6154187;23;20185;-85
2021/10/17 03:01:30;;;;;;;9.33;7.93;;;;;;;9.08;69.31;95918.16;6154113;23;20203;-85
2021/10/17 03:03:58;;;;;;;8.17;7.37;;;;;;;9.09;69.62;95910.31;6154614;23;20179;-85
2021/10/17 03:06:26;;;;;;;8.03;7.23;;;;;;;9.14;68.94;95915.78;6153867;23;20179;-84
2021/10/17 03:08:52;;;;;;;8.20;7.40;;;;;;;9.10;68.70;95911.13;6154167;23;20486;-84
2021/10/17 03:11:19;;;;;;;8.43;7.57;;;;;;;9.05;68.95;95909.00;6153859;23;20847;-84
2021/10/17 03:13:46;;;;;;;7.83;7.03;;;;;;;8.95;69.50;95914.31;6153651;23;20637;-85
2021/10/17 03:16:12;;;;;;;8.07;6.83;;;;;;;8.99;69.62;95918.19;6153984;23;20175;-85
2021/10/17 03:18:38;;;;;;;8.43;7.53;;;;;;;8.89;69.44;95920.06;6153319;23;20187;-84
2021/10/17 03:21:06;;;;;;;7.63;6.93;;;;;;;8.92;69.63;95916.38;6153613;23;20179;-84
2021/10/17 03:23:33;;;;;;;7.87;7.17;;;;;;;9.02;69.12;95901.66;6153796;23;20218;-84
2021/10/17 03:25:59;;;;;;;7.43;6.60;;;;;;;9.03;69.05;95915.31;6153450;23;20175;-85
2021/10/17 03:28:26;;;;;;;7.50;6.83;;;;;;;9.09;68.88;95912.88;6153583;23;20181;-85
2021/10/17 03:30:54;;;;;;;7.60;6.90;;;;;;;9.14;69.13;95909.84;6154102;23;20175;-84
2021/10/17 03:33:21;;;;;;;8.50;7.63;;;;;;;9.15;69.60;95916.59;6153824;23;20520;-85
2021/10/17 03:35:48;;;;;;;8.43;7.57;;;;;;;9.16;70.01;95920.75;6154507;23;20178;-84
2021/10/17 03:38:16;;;;;;;8.40;7.43;;;;;;;9.12;70.07;95914.31;6154440;23;20175;-84
2021/10/17 03:40:42;;;;;;;8.50;7.70;;;;;;;9.13;69.69;95911.59;6154332;23;20182;-84
2021/10/17 03:43:08;;;;;;;8.47;7.60;;;;;;;9.14;69.40;95920.91;6154388;23;20544;-84
2021/10/17 03:45:35;;;;;;;8.00;7.30;;;;;;;9.15;69.45;95917.38;6154594;23;20178;-85
2021/10/17 03:48:01;;;;;;;7.80;7.10;;;;;;;9.18;69.02;95916.28;6154510;23;20175;-85
2021/10/17 03:50:28;;;;;;;7.40;6.70;;;;;;;9.16;69.06;95920.75;6152403;23;20258;-86
2021/10/17 03:52:54;;;;;;;7.60;6.90;;;;;;;9.05;68.97;95915.91;6152585;23;20687;-85
2021/10/17 03:55:22;;;;;;;7.17;6.47;;;;;;;9.04;69.41;95914.34;6154564;23;20516;-85
2021/10/17 03:57:49;;;;;;;7.40;6.70;;;;;;;8.99;69.54;95910.47;6155423;23;20179;-85
2021/10/17 04:00:15;;;;;;;7.47;6.83;;;;;;;9.04;68.87;95904.88;6153856;23;20208;-84
2021/10/17 04:02:42;;;;;;;6.73;6.13;;;;;;;9.10;68.79;95911.91;6154217;23;20207;-83
2021/10/17 04:05:09;;;;;;;7.07;6.47;;;;;;;9.04;68.80;95909.19;6153959;23;20175;-85
2021/10/17 04:07:36;;;;;;;7.13;6.50;;;;;;;8.99;68.66;95910.47;6154337;23;20175;-84
2021/10/17 04:10:03;;;;;;;7.43;6.67;;;;;;;8.89;68.82;95909.81;6153871;23;20182;-85
2021/10/17 04:12:31;;;;;;;6.67;6.07;;;;;;;8.93;68.66;95907.72;6153943;23;20202;-85
2021/10/17 04:14:58;;;;;;;7.37;6.67;;;;;;;8.95;68.30;95901.47;6153874;23;20181;-83
2021/10/17 04:17:24;;;;;;;6.57;6.07;;;;;;;8.99;67.98;95907.09;6154338;23;20261;-85
2021/10/17 04:19:51;;;;;;;7.23;6.63;;;;;;;9.00;67.73;95916.41;6155050;23;20198;-86
2021/10/17 04:22:18;;;;;;;6.87;6.27;;;;;;;8.94;67.85;95910.13;6153663;23;20203;-86
2021/10/17 04:24:44;;;;;;;6.83;6.23;;;;;;;8.89;67.42;95903.84;6154137;23;20182;-84
2021/10/17 04:27:11;;;;;;;6.67;6.07;;;;;;;8.91;67.51;95904.50;6152596;23;20182;-84
2021/10/17 04:29:39;;;;;;;7.23;6.53;;;;;;;8.85;67.56;95903.38;6153510;23;20171;-85
2021/10/17 04:32:07;;;;;;;6.90;6.30;;;;;;;8.71;68.16;95908.31;6152757;23;20190;-86
2021/10/17 04:34:35;;;;;;;6.83;6.23;;;;;;;8.68;68.29;95903.50;6153603;23;20175;-84
2021/10/17 04:37:01;;;;;;;6.80;6.20;;;;;;;8.72;67.59;95904.78;6153793;23;20202;-84
2021/10/17 04:39:28;;;;;;;6.80;6.10;;;;;;;8.63;67.24;95898.84;6154950;23;20174;-85
2021/10/17 04:41:55;;;;;;;6.50;5.83;;;;;;;8.69;67.74;95899.97;6154523;23;20194;-85
2021/10/17 04:44:22;;;;;;;6.77;6.17;;;;;;;8.65;67.43;95900.31;6154107;23;20203;-85
2021/10/17 04:46:49;;;;;;;7.27;6.57;;;;;;;8.60;67.22;95899.16;6154529;23;20179;-84
2021/10/17 04:49:16;;;;;;;6.03;5.53;;;;;;;8.57;68.19;95897.69;6154645;23;20178;-85
2021/10/17 04:51:42;;;;;;;5.93;5.43;;;;;;;8.56;67.87;95888.41;6155239;23;20199;-84
2021/10/17 04:54:09;;;;;;;5.90;5.40;;;;;;;8.60;67.80;95892.25;6153550;23;20175;-84
2021/10/17 04:56:36;;;;;;;6.27;5.77;;;;;;;8.63;67.63;95891.16;6154847;23;20174;-86
2021/10/17 04:59:02;;;;;;;7.00;5.40;;;;;;;8.58;67.29;95894.19;6152510;23;20175;-84
2021/10/17 05:01:29;;;;;;;6.60;6.00;;;;;;;8.55;67.73;95885.97;6156103;23;20218;-85
2021/10/17 05:03:59;;;;;;;7.80;5.70;;;;;;;8.59;67.33;95884.72;6158646;23;20198;-85
2021/10/17 05:06:27;;;;;;;5.53;5.03;;;;;;;8.55;67.20;95884.22;6157769;23;20179;-85
2021/10/17 05:08:53;;;;;;;6.03;5.53;;;;;;;8.57;66.99;95881.50;6158265;23;20587;-85
2021/10/17 05:11:22;;;;;;;6.73;6.03;;;;;;;8.46;67.85;95882.59;6157040;23;20201;-86
2021/10/17 05:13:49;;;;;;;7.07;5.90;;;;;;;8.43;67.94;95889.81;6158625;23;20202;-84
2021/10/17 05:16:15;;;;;;;6.37;5.77;;;;;;;8.37;68.27;95887.84;6159096;23;20182;-85
2021/10/17 05:18:42;;;;;;;6.20;5.60;;;;;;;8.41;67.87;95889.97;6158101;23;20783;-86
2021/10/17 05:21:10;;;;;;;6.27;5.50;;;;;;;8.41;67.65;95894.28;6156962;23;20179;-85
2021/10/17 05:23:37;;;;;;;5.97;5.13;;;;;;;8.57;79.79;95887.44;6155766;23;20198;-84
2021/10/17 05:26:04;;;;;;;5.33;4.83;;;;;;;9.05;88.31;95896.19;6153950;23;20178;-84
2021/10/17 05:28:30;;;;;;;7.07;5.20;;;;;;;9.51;83.05;95894.75;6153903;23;20634;-84
2021/10/17 05:31:00;;;;;;;6.60;4.80;;;;;;;9.89;81.50;95892.44;6154132;23;20179;-84
2021/10/17 05:33:27;;;;;;;6.80;4.97;;;;;;;10.21;77.58;95891.56;6153914;23;20170;-84
2021/10/17 05:35:53;;;;;;;5.93;4.50;;;;;;;10.47;76.33;95899.81;6154092;23;20201;-85
2021/10/17 05:38:21;;;;;;;5.87;4.70;;;;;;;10.64;73.94;95893.63;6154312;23;20700;-85
2021/10/17 05:40:47;;;;;;;5.20;4.40;;;;;;;10.82;73.53;95893.38;6154380;23;20182;-85
2021/10/17 05:43:14;;;;;;;6.13;4.93;;;;;;;10.94;70.92;95886.06;6153717;23;20756;-84
2021/10/17 05:45:40;;;;;;;5.53;4.93;;;;;;;10.94;69.38;95886.06;6153893;23;20182;-85
2021/10/17 05:48:07;;;;;;;5.33;4.40;;;;;;;10.98;69.39;95888.09;6154154;23;20651;-84
2021/10/17 05:50:33;;;;;;;5.00;4.50;;;;;;;11.06;68.84;95890.63;6155086;23;20540;-85
2021/10/17 05:53:03;;;;;;;5.40;4.90;;;;;;;10.98;61.63;95882.94;6156902;23;20525;-86
2021/10/17 05:55:31;;;;;;;5.27;4.77;;;;;;;10.60;62.17;95886.41;6156807;23;20230;-85
2021/10/17 05:58:00;;;;;;;5.60;5.10;;;;;;;10.29;62.83;95894.13;6156756;23;20197;-85
2021/10/17 06:00:27;;;;;;;5.10;4.70;;;;;;;9.93;62.91;95897.09;6155399;23;20206;-86
2021/10/17 06:02:54;;;;;;;5.80;5.30;;;;;;;9.73;63.89;95902.75;6155447;23;20649;-85
2021/10/17 06:05:21;;;;;;;5.63;5.07;;;;;;;9.61;64.62;95897.97;6154985;23;20178;-84
2021/10/17 06:07:47;;;;;;;6.37;5.77;;;;;;;9.44;64.63;95908.38;6154931;23;20179;-84
2021/10/17 06:10:14;;;;;;;5.70;5.20;;;;;;;9.38;65.80;95896.22;6154653;23;20182;-85
2021/10/17 06:12:42;;;;;;;6.43;5.83;;;;;;;9.47;65.51;95910.66;6154334;23;20201;-84
2021/10/17 06:15:10;;;;;;;5.77;5.27;;;;;;;9.65;65.25;95909.50;6153606;23;20261;-85
2021/10/17 06:17:37;;;;;;;6.53;5.93;;;;;;;9.85;64.97;95909.16;6156261;23;20190;-85
2021/10/17 06:20:05;;;;;;;6.43;5.83;;;;;;;10.03;64.44;95912.31;6156695;23;20179;-86
2021/10/17 06:22:32;;;;;;;6.00;5.50;;;;;;;10.03;64.04;95909.75;6157376;23;20205;-85
2021/10/17 06:24:58;;;;;;;5.83;5.33;;;;;;;10.17;64.33;95906.53;6155877;23;20175;-85
2021/10/17 06:27:25;;;;;;;6.33;5.73;;;;;;;10.35;63.90;95917.41;6155628;23;20253;-85
2021/10/17 06:29:53;;;;;;;5.87;5.20;;;;;;;10.42;64.12;95924.47;6158576;23;20621;-85
2021/10/17 06:32:19;;;;;;;5.93;5.43;;;;;;;10.54;64.15;95920.56;6160476;23;20537;-86
2021/10/17 06:34:46;;;;;;;5.70;5.10;;;;;;;10.71;63.65;95922.09;6165416;23;20175;-84
2021/10/17 06:37:12;;;;;;;6.17;5.57;;;;;;;10.81;63.90;95921.84;6167174;23;20189;-84
2021/10/17 06:39:39;;;;;;;6.73;5.63;;;;;;;10.99;63.74;95923.19;6166340;23;20253;-85
2021/10/17 06:42:07;;;;;;;6.10;5.60;;;;;;;11.05;63.67;95922.53;6168153;23;20211;-85
2021/10/17 06:44:34;;;;;;;6.00;5.50;;;;;;;11.25;63.07;95927.22;6164754;23;20206;-84
2021/10/17 06:47:01;;;;;;;6.10;5.60;;;;;;;11.51;62.88;95929.47;6164920;23;20281;-84
2021/10/17 06:49:28;;;;;;;5.50;5.03;;;;;;;11.73;62.21;95926.06;6165792;23;20167;-86
2021/10/17 06:51:54;;;;;;;5.57;5.07;;;;;;;11.92;61.77;95925.59;6166434;23;20695;-85
2021/10/17 06:54:21;;;;;;;5.80;5.30;;;;;;;11.95;61.66;95935.53;6158797;23;20197;-86
2021/10/17 06:56:47;;;;;;;5.53;5.03;;;;;;;12.17;61.38;95945.97;6156510;23;20185;-86
2021/10/17 06:59:14;;;;;;;5.97;5.47;;;;;;;12.25;61.21;95943.31;6157944;23;20210;-86
2021/10/17 07:01:44;;;;;;;6.10;5.60;;;;;;;12.44;60.88;95953.91;6155108;23;20203;-86
2021/10/17 07:04:16;;;;;;;5.73;5.23;;;;;;;12.52;60.50;95949.63;6156309;23;20226;-85
2021/10/17 07:06:44;;;;;;;6.00;5.40;;;;;;;12.56;60.51;95954.25;6157654;23;20171;-85
2021/10/17 07:09:11;;;;;;;5.57;5.10;;;;;;;12.79;60.22;95948.97;6157711;23;20187;-86
2021/10/17 07:11:38;;;;;;;5.67;5.17;;;;;;;12.86;59.42;95951.63;6156918;23;20720;-88
2021/10/17 07:14:05;;;;;;;5.90;5.40;;;;;;;13.00;59.23;95956.78;6156451;23;20198;-86
2021/10/17 07:16:31;;;;;;;5.93;5.33;;;;;;;12.86;59.27;95944.69;6158516;23;20174;-85
2021/10/17 07:18:58;;;;;;;5.10;4.70;;;;;;;12.98;59.31;95952.75;6158482;23;20199;-83
2021/10/17 07:21:26;;;;;;;5.73;5.23;;;;;;;13.31;58.78;95960.88;6159075;23;20194;-83
2021/10/17 07:23:55;;;;;;;5.20;4.70;;;;;;;13.57;58.28;95952.59;6159742;23;20202;-83
2021/10/17 07:26:21;;;;;;;5.00;4.60;;;;;;;13.83;57.15;95950.22;6159022;23;20179;-85
2021/10/17 07:28:48;;;;;;;5.37;4.97;;;;;;;13.99;56.72;95943.97;6159388;23;20167;-83
2021/10/17 07:31:15;;;;;;;5.23;4.73;;;;;;;14.14;56.86;95947.25;6159458;23;20171;-85
2021/10/17 07:33:41;;;;;;;5.00;4.60;;;;;;;14.30;56.56;95952.13;6158764;23;20178;-84
2021/10/17 07:36:08;;;;;;;5.37;4.97;;;;;;;14.46;55.97;95951.84;6158935;23;20252;-84
2021/10/17 07:38:36;;;;;;;4.80;4.40;;;;;;;14.66;55.69;95951.94;6159968;23;20191;-84
2021/10/17 07:41:02;;;;;;;5.23;4.83;;;;;;;14.82;55.38;95948.22;6159924;23;20171;-83
2021/10/17 07:43:29;;;;;;;5.00;4.60;;;;;;;14.56;56.12;95948.13;6159720;23;20226;-84
2021/10/17 07:45:55;;;;;;;5.37;4.87;;;;;;;14.68;55.80;95947.38;6159312;23;20179;-85
2021/10/17 07:48:22;;;;;;;4.80;4.40;;;;;;;14.98;55.41;95952.28;6160323;23;20800;-85
2021/10/17 07:50:48;;;;;;;5.00;4.60;;;;;;;15.22;54.51;95959.53;6160009;23;20179;-84
2021/10/17 07:53:15;;;;;;;4.63;4.23;;;;;;;15.44;54.08;95952.38;6159509;23;20194;-85
2021/10/17 07:55:43;;;;;;;5.00;4.60;;;;;;;15.64;54.32;95955.03;6158001;23;20183;-84
2021/10/17 07:58:09;;;;;;;4.90;4.50;;;;;;;15.74;54.16;95953.66;6157480;23;20175;-85
2021/10/17 08:00:37;;;;;;;5.50;5.00;;;;;;;15.88;54.25;95955.25;6157476;23;20183;-84
2021/10/17 08:03:04;;;;;;;5.30;4.80;;;;;;;15.99;53.54;95956.44;6157519;23;20238;-85
2021/10/17 08:05:30;;;;;;;5.10;4.70;;;;;;;16.15;53.37;95947.44;6157869;23;20175;-84
2021/10/17 08:07:57;;;;;;;5.07;4.67;;;;;;;16.16;52.99;95951.66;6157442;23;20181;-84
2021/10/17 08:10:23;;;;;;;4.72;4.25;;;;;;;16.18;52.93;95947.03;6156385;23;20547;-84
2021/10/17 08:12:51;;;;;;;5.05;4.65;;;;;;;16.26;53.86;95946.81;6157532;23;20526;-85
2021/10/17 08:15:18;;;;;;;4.90;4.50;;;;;;;16.40;53.39;95955.38;6157322;23;20177;-85
2021/10/17 08:17:44;;;;;;;5.15;4.75;;;;;;;16.40;53.00;95948.38;6157875;23;20258;-84
2021/10/17 08:20:11;;;;;;;5.53;5.10;;;;;;;16.45;53.27;95952.97;6157670;23;20184;-84
2021/10/17 08:22:38;;;;;;;5.30;4.90;;;;;;;16.48;53.03;95960.38;6158258;23;20195;-84
2021/10/17 08:25:06;;;;;;;5.47;5.07;;;;;;;16.39;53.76;95956.38;6157166;23;20195;-85
2021/10/17 08:27:33;;;;;;;5.70;5.20;;;;;;;16.38;54.59;95959.97;6155840;23;20179;-85
2021/10/17 08:30:02;;;;;;;5.80;5.30;;;;;;;16.30;54.63;95968.00;6157466;23;20174;-85
2021/10/17 08:32:29;;;;;;;5.65;5.25;;;;;;;16.33;55.24;95963.22;6157438;23;20199;-83
2021/10/17 08:34:55;;;;;;;5.80;5.30;;;;;;;16.36;55.36;95967.97;6155057;23;20656;-85
2021/10/17 08:37:22;;;;;;;6.15;5.65;;;;;;;16.34;55.95;95964.00;6160595;23;20171;-83
2021/10/17 08:39:48;;;;;;;5.53;5.03;;;;;;;16.32;56.27;95963.41;6161126;23;20181;-84
2021/10/17 08:42:16;;;;;;;5.55;5.15;;;;;;;16.24;56.58;95967.81;6159894;23;20838;-84
2021/10/17 08:44:42;;;;;;;6.03;5.53;;;;;;;16.22;56.98;95975.00;6161892;23;20198;-85
2021/10/17 08:47:11;;;;;;;5.80;5.40;;;;;;;16.28;56.84;95973.41;6159399;23;20185;-85
2021/10/17 08:49:37;;;;;;;6.80;6.20;;;;;;;16.22;57.29;95976.81;6159644;23;20179;-85
2021/10/17 08:52:09;;;;;;;7.15;6.55;;;;;;;16.18;57.08;95976.41;6159186;23;20210;-84
2021/10/17 08:54:37;;;;;;;7.68;6.85;;;;;;;16.15;57.05;95969.03;6159363;23;20194;-84
2021/10/17 08:57:10;;;;;;;7.55;6.88;;;;;;;16.11;57.15;95980.03;6159060;23;20183;-85
2021/10/17 08:59:36;;;;;;;8.45;7.75;;;;;;;16.17;57.59;95979.19;6159177;23;20156;-84
2021/10/17 09:02:14;;;;;;;8.77;7.97;;;;;;;16.20;57.42;95971.81;6159028;23;20698;-85
2021/10/17 09:04:40;;;;;;;8.88;7.65;;;;;;;16.19;57.79;95972.81;6159175;23;20230;-83
2021/10/17 09:07:17;;;;;;;9.02;8.13;;;;;;;16.07;58.34;95979.63;6159107;23;20262;-85
2021/10/17 09:10:05;;;;;;;8.48;7.78;;;;;;;15.99;58.99;95979.00;6158312;23;20214;-84
2021/10/17 09:12:33;;;;;;;9.07;8.27;;;;;;;15.95;59.04;95976.03;6159116;23;20247;-85
2021/10/17 09:15:21;;;;;;;8.23;7.53;;;;;;;15.93;59.39;95980.63;6158541;23;20170;-84
2021/10/17 09:18:12;;;;;;;10.15;9.15;;;;;;;15.86;59.63;95978.03;6159285;23;20193;-84
2021/10/17 09:20:54;;;;;;;8.85;8.15;;;;;;;15.91;59.92;95971.44;6158887;23;20163;-83
2021/10/17 09:23:41;;;;;;;9.38;8.48;;;;;;;15.88;59.30;95973.44;6158735;23;20226;-84
2021/10/17 09:26:17;;;;;;;10.55;9.65;;;;;;;15.86;58.97;95966.84;6157974;23;20214;-85
2021/10/17 09:28:44;;;;;;;11.30;10.20;;;;;;;15.77;59.04;95968.84;6158915;23;20170;-84
2021/10/17 09:31:15;;;;;;;10.48;9.57;;;;;;;15.83;59.57;95977.63;6158990;23;20220;-84
2021/10/17 09:33:46;;;;;;;10.40;9.40;;;;;;;15.77;60.36;95970.66;6158195;23;20163;-85
2021/10/17 09:36:24;;;;;;;9.98;9.07;;;;;;;15.68;60.57;95971.81;6158793;23;20175;-85
2021/10/17 09:38:54;;;;;;;10.68;9.57;;;;;;;15.65;60.38;95967.03;6158474;23;20175;-85
2021/10/17 09:41:23;;;;;;;10.43;9.45;;;;;;;15.63;60.83;95969.81;6157851;23;20191;-83
2021/10/17 09:43:54;;;;;;;10.85;9.85;;;;;;;15.69;61.04;95968.22;6157750;23;20179;-85
2021/10/17 09:46:21;;;;;;;10.55;9.65;;;;;;;15.68;60.74;95962.25;6158412;23;20188;-84
2021/10/17 09:48:49;;;;;;;10.85;9.88;;;;;;;15.61;60.72;95977.00;6158367;23;20178;-84
2021/10/17 09:51:17;;;;;;;10.52;9.60;;;;;;;15.64;60.07;95975.81;6158713;23;20644;-84
2021/10/17 09:53:47;;;;;;;10.63;9.63;;;;;;;15.63;61.22;95980.19;6157969;23;20181;-84
2021/10/17 09:56:24;;;;;;;11.07;10.07;;;;;;;15.61;61.43;95979.59;6158287;23;20178;-84
2021/10/17 09:58:52;;;;;;;9.65;8.85;;;;;;;15.56;62.25;95982.00;6157911;23;20197;-84
2021/10/17 10:01:21;;;;;;;11.52;10.38;;;;;;;15.57;61.38;95982.81;6157234;23;20231;-85
2021/10/17 10:03:52;;;;;;;10.90;9.90;;;;;;;15.48;61.78;95975.16;6157439;23;20178;-85
2021/10/17 10:06:20;;;;;;;11.15;9.95;;;;;;;15.50;61.28;95980.97;6157855;23;20171;-85
2021/10/17 10:08:47;;;;;;;11.02;9.93;;;;;;;15.47;62.26;95981.34;6156987;23;20702;-85
2021/10/17 10:11:20;;;;;;;12.00;10.93;;;;;;;15.41;61.48;95979.53;6157197;23;20636;-84
2021/10/17 10:13:48;;;;;;;11.13;10.02;;;;;;;15.36;61.32;95976.75;6157823;23;20167;-83
2021/10/17 10:16:17;;;;;;;12.05;10.95;;;;;;;15.16;62.26;95973.28;6157711;23;20182;-84
2021/10/17 10:18:43;;;;;;;10.35;9.45;;;;;;;15.24;63.28;95974.91;6157302;23;20179;-83
2021/10/17 10:21:11;;;;;;;10.77;9.77;;;;;;;15.33;62.63;95974.53;6157424;23;20182;-84
2021/10/17 10:23:38;;;;;;;11.70;10.67;;;;;;;15.27;62.05;95964.13;6157653;23;20175;-84
2021/10/17 10:26:04;;;;;;;11.70;10.57;;;;;;;15.36;62.23;95973.34;6157354;23;20195;-83
2021/10/17 10:28:31;;;;;;;13.40;12.05;;;;;;;15.31;62.39;95967.94;6157074;23;20181;-85
2021/10/17 10:30:57;;;;;;;12.32;11.23;;;;;;;15.29;61.90;95959.53;6158005;23;20183;-83
2021/10/17 10:33:25;;;;;;;12.90;11.67;;;;;;;15.18;62.79;95966.13;6155269;23;20175;-83
2021/10/17 10:36:13;;;;;;;12.77;11.53;;;;;;;15.15;63.15;95961.31;6152945;23;20182;-84
2021/10/17 10:39:21;;;;;;;14.07;12.60;;;;;;;15.21;62.55;95966.50;6154216;23;20520;-84
2021/10/17 10:41:52;;;;;;;12.70;11.50;;;;;;;15.17;64.08;95962.72;6155668;23;20198;-83
2021/10/17 10:44:21;;;;;;;12.77;11.50;;;;;;;15.31;63.07;95962.75;6156504;23;20183;-85
2021/10/17 10:46:48;;;;;;;13.73;12.40;;;;;;;15.33;63.50;95958.16;6156634;23;20183;-84
2021/10/17 10:49:43;;;;;;;13.43;12.13;;;;;;;15.40;63.30;95957.16;6155726;23;20183;-85
2021/10/17 10:52:44;;;;;;;13.80;12.40;;;;;;;15.35;63.44;95961.38;6156695;23;20198;-85
2021/10/17 10:55:13;;;;;;;13.87;12.43;;;;;;;15.25;63.55;95951.34;6156712;23;20162;-84
2021/10/17 10:57:42;;;;;;;14.57;13.18;;;;;;;15.26;63.80;95950.34;6157014;23;20190;-84
2021/10/17 11:00:10;;;;;;;14.52;12.05;;;;;;;15.37;64.01;95947.22;6157686;23;20186;-85
2021/10/17 11:02:38;;;;;;;12.70;11.50;;;;;;;15.46;63.30;95951.19;6157794;23;20191;-84
2021/10/17 11:05:15;;;;;;;13.25;11.70;;;;;;;15.54;63.33;95948.44;6157332;23;20198;-84
2021/10/17 11:07:45;;;;;;;13.10;11.88;;;;;;;15.52;62.44;95945.22;6156868;23;20174;-84
2021/10/17 11:10:47;;;;;;;13.10;11.07;;;;;;;15.55;63.67;95936.25;6156054;23;20206;-85
2021/10/17 11:13:35;;;;;;;13.23;11.13;;;;;;;15.61;63.21;95932.88;6156885;23;20506;-84
2021/10/17 11:16:04;;;;;;;12.95;11.75;;;;;;;15.67;62.88;95941.66;6157385;23;20166;-84
2021/10/17 11:18:32;;;;;;;12.73;11.52;;;;;;;15.70;62.90;95929.09;6156987;23;20190;-83
2021/10/17 11:21:01;;;;;;;12.70;11.40;;;;;;;15.60;63.09;95928.66;6157428;23;20181;-84
2021/10/17 11:23:31;;;;;;;12.73;11.43;;;;;;;15.63;63.10;95922.28;6156650;23;20178;-83
2021/10/17 11:25:59;;;;;;;12.70;11.50;;;;;;;15.65;63.24;95923.69;6157428;23;20258;-85
2021/10/17 11:28:27;;;;;;;13.40;12.05;;;;;;;15.69;63.22;95922.31;6156674;23;20786;-85
2021/10/17 11:31:06;;;;;;;11.90;10.70;;;;;;;15.89;63.20;95914.50;6157308;23;20174;-85
2021/10/17 11:33:33;;;;;;;12.32;11.15;;;;;;;16.03;62.68;95916.06;6156835;23;20181;-84
2021/10/17 11:36:00;;;;;;;12.35;11.23;;;;;;;16.03;61.67;95915.28;6157758;23;20186;-83
2021/10/17 11:38:29;;;;;;;12.32;11.13;;;;;;;16.06;61.90;95907.09;6157763;23;20292;-85